Time;durP1;ratioP1;P1;durP2;ratioP2;P2;SDS_P1;SDS_P2;PMS_P1;PMS_P2;Temp;Humidity;BMP_temperature;BMP_pressure;BME280_temperature;BME280_humidity;BME280_pressure;Samples;Min_cycle;Max_cycle;Signal;HPM_P1;HPM_P2
2022/12/28 00:01:27;;;;;;;13.50;12.60;;;6.40;37.60;;;;;;5090966;28;20412;-56
2022/12/28 00:03:53;;;;;;;12.20;11.60;;;6.40;37.50;;;;;;5090968;28;20793;-57
2022/12/28 00:06:22;;;;;;;12.60;11.90;;;6.50;36.80;;;;;;5090641;28;20745;-57
2022/12/28 00:08:48;;;;;;;11.93;11.33;;;6.40;37.40;;;;;;5090661;28;20431;-57
2022/12/28 00:11:16;;;;;;;12.90;12.20;;;6.40;36.80;;;;;;5091414;28;20771;-57
2022/12/28 00:13:43;;;;;;;12.97;12.27;;;6.50;37.40;;;;;;5091246;28;20416;-57
2022/12/28 00:16:25;;;;;;;13.23;12.53;;;6.50;36.50;;;;;;5090740;28;20434;-56
2022/12/28 00:18:50;;;;;;;13.40;12.60;;;6.50;37.10;;;;;;5109598;28;20436;-57
2022/12/28 00:21:16;;;;;;;13.37;12.47;;;6.70;37.40;;;;;;5091066;28;20950;-57
2022/12/28 00:23:42;;;;;;;11.70;11.10;;;6.90;36.20;;;;;;5090601;28;20205;-56
2022/12/28 00:26:12;;;;;;;12.57;11.80;;;6.90;35.70;;;;;;5091045;28;20199;-57
2022/12/28 00:28:38;;;;;;;12.03;11.30;;;6.90;35.50;;;;;;5090544;28;20268;-56
2022/12/28 00:31:05;;;;;;;12.17;11.57;;;7.00;35.20;;;;;;5090756;28;20495;-57
2022/12/28 00:33:31;;;;;;;11.80;11.20;;;7.00;35.50;;;;;;5090698;28;20425;-57
2022/12/28 00:35:58;;;;;;;11.80;11.20;;;7.10;35.30;;;;;;5090638;28;20408;-57
2022/12/28 00:38:25;;;;;;;10.80;10.20;;;6.90;34.70;;;;;;5089685;28;20174;-57
2022/12/28 00:40:51;;;;;;;11.73;11.13;;;6.80;35.30;;;;;;5107555;28;20498;-56
2022/12/28 00:43:17;;;;;;;12.37;11.77;;;6.60;36.10;;;;;;5089771;28;20491;-57
2022/12/28 00:45:46;;;;;;;11.77;11.20;;;6.50;36.40;;;;;;5091243;28;20197;-60
2022/12/28 00:48:12;;;;;;;11.70;10.83;;;6.30;37.00;;;;;;5090372;28;20412;-60
2022/12/28 00:50:38;;;;;;;11.93;11.23;;;6.20;37.70;;;;;;5089992;28;20419;-60
2022/12/28 00:53:04;;;;;;;11.83;11.13;;;6.10;37.90;;;;;;5090331;28;20412;-61
2022/12/28 00:55:32;;;;;;;12.13;11.53;;;5.90;39.20;;;;;;5090353;28;20879;-60
2022/12/28 00:57:58;;;;;;;12.33;11.57;;;5.90;39.20;;;;;;5090162;28;20170;-61
2022/12/28 01:00:24;;;;;;;12.33;11.73;;;5.80;39.10;;;;;;5090574;28;20416;-61
2022/12/28 01:02:50;;;;;;;12.67;11.97;;;5.90;39.20;;;;;;5090411;28;20804;-61
2022/12/28 01:05:16;;;;;;;12.10;11.53;;;5.90;39.20;;;;;;5090256;28;20451;-61
2022/12/28 01:07:42;;;;;;;12.40;11.80;;;6.10;38.70;;;;;;5090328;28;20174;-60
2022/12/28 01:10:08;;;;;;;12.63;11.83;;;6.10;38.70;;;;;;5108544;28;20475;-61
2022/12/28 01:12:33;;;;;;;12.23;11.53;;;6.00;38.60;;;;;;5090062;28;20174;-60
2022/12/28 01:14:59;;;;;;;12.43;11.73;;;6.10;38.80;;;;;;5090356;28;20423;-61
2022/12/28 01:17:25;;;;;;;12.37;11.77;;;6.00;38.70;;;;;;5090346;28;20223;-60
2022/12/28 01:19:50;;;;;;;13.10;12.50;;;5.90;39.20;;;;;;5090447;28;20169;-61
2022/12/28 01:22:16;;;;;;;13.63;12.93;;;5.80;39.10;;;;;;5089741;28;20263;-60
2022/12/28 01:24:42;;;;;;;12.57;11.87;;;5.80;39.40;;;;;;5086936;28;20266;-60
2022/12/28 01:27:07;;;;;;;13.30;12.53;;;5.70;39.60;;;;;;5107868;28;20575;-60
2022/12/28 01:29:33;;;;;;;12.67;11.80;;;5.60;40.20;;;;;;5107851;28;20174;-61
2022/12/28 01:32:00;;;;;;;13.43;12.83;;;5.60;40.40;;;;;;5093745;28;20661;-60
2022/12/28 01:34:25;;;;;;;12.90;12.00;;;5.50;41.20;;;;;;5094180;28;20541;-60
2022/12/28 01:36:51;;;;;;;12.40;11.90;;;5.50;41.00;;;;;;5092020;28;20428;-61
2022/12/28 01:39:17;;;;;;;12.47;11.97;;;5.50;40.90;;;;;;5090814;28;20461;-60
2022/12/28 01:41:44;;;;;;;11.23;10.63;;;5.60;40.60;;;;;;5089538;28;20175;-61
2022/12/28 01:44:09;;;;;;;12.53;11.93;;;5.60;40.70;;;;;;5091281;28;20201;-61
2022/12/28 01:47:01;;;;;;;11.90;11.40;;;5.70;40.20;;;;;;5085110;28;20417;-61
2022/12/28 01:49:50;;;;;;;13.10;12.37;;;5.60;40.20;;;;;;5077089;28;20601;-60
2022/12/28 01:52:39;;;;;;;13.50;12.90;;;5.60;40.70;;;;;;5096291;28;20428;-60
2022/12/28 01:55:08;;;;;;;12.80;12.10;;;5.50;41.10;;;;;;5087997;28;20405;-57
2022/12/28 01:57:43;;;;;;;12.63;12.07;;;5.50;41.10;;;;;;5101089;28;20416;-57
2022/12/28 02:00:12;;;;;;;12.07;11.23;;;5.50;40.70;;;;;;5080491;28;20934;-60
2022/12/28 02:02:40;;;;;;;12.00;11.33;;;5.60;40.70;;;;;;5089079;28;20789;-60
2022/12/28 02:05:07;;;;;;;10.60;10.20;;;5.50;40.70;;;;;;5087401;28;20866;-61
2022/12/28 02:07:56;;;;;;;12.17;11.57;;;5.50;40.60;;;;;;5107713;28;20443;-61
2022/12/28 02:10:23;;;;;;;12.23;11.53;;;5.60;40.60;;;;;;5085636;28;20451;-60
2022/12/28 02:12:50;;;;;;;11.50;11.00;;;5.70;40.20;;;;;;5083962;28;20463;-61
2022/12/28 02:15:16;;;;;;;11.67;11.17;;;5.80;40.10;;;;;;5089752;28;20503;-57
2022/12/28 02:17:41;;;;;;;10.70;10.10;;;5.80;39.90;;;;;;5084116;28;20516;-56
2022/12/28 02:20:08;;;;;;;11.40;10.83;;;5.70;40.00;;;;;;5086199;28;20508;-57
2022/12/28 02:22:58;;;;;;;12.47;11.87;;;5.70;40.20;;;;;;5104637;28;20170;-56
2022/12/28 02:25:56;;;;;;;11.70;11.20;;;5.70;40.40;;;;;;5083918;28;20975;-57
2022/12/28 02:29:00;;;;;;;11.43;10.93;;;5.70;40.10;;;;;;5085165;28;20404;-57
2022/12/28 02:31:50;;;;;;;10.90;10.50;;;5.70;39.60;;;;;;5081814;28;20404;-57
2022/12/28 02:34:25;;;;;;;12.10;11.53;;;5.80;39.80;;;;;;5083392;28;20462;-57
2022/12/28 02:37:13;;;;;;;10.60;10.20;;;5.90;39.40;;;;;;5088158;28;20469;-57
2022/12/28 02:39:46;;;;;;;11.67;11.17;;;5.90;39.20;;;;;;5093305;28;20435;-57
2022/12/28 02:42:14;;;;;;;11.07;10.60;;;5.80;39.40;;;;;;5092745;28;20831;-61
2022/12/28 02:50:13;;;;;;;10.30;9.90;;;6.00;39.30;;;;;;5110687;28;20453;-61
2022/12/28 02:52:57;;;;;;;9.90;9.50;;;6.00;39.10;;;;;;5093061;28;20775;-61
2022/12/28 02:58:38;;;;;;;10.20;9.80;;;6.20;38.60;;;;;;5110667;28;21180;-61
2022/12/28 03:01:22;;;;;;;10.70;10.13;;;6.20;38.20;;;;;;5092529;28;20414;-61
2022/12/28 03:04:16;;;;;;;10.70;10.10;;;6.20;38.50;;;;;;5092376;28;20459;-61
2022/12/28 03:10:14;;;;;;;10.20;9.80;;;6.30;38.10;;;;;;5110926;28;20403;-61
2022/12/28 03:12:46;;;;;;;10.97;10.37;;;6.40;38.30;;;;;;5091852;28;20464;-62
2022/12/28 03:15:31;;;;;;;9.77;9.37;;;6.40;38.00;;;;;;5092070;28;20410;-62
2022/12/28 03:32:13;;;;;;;10.33;9.93;;;6.50;37.60;;;;;;5111313;28;20641;-62
2022/12/28 03:34:39;;;;;;;10.60;10.20;;;6.60;37.40;;;;;;5091832;28;20419;-62
2022/12/28 03:37:24;;;;;;;10.30;9.90;;;6.60;37.50;;;;;;5091706;28;20423;-61
2022/12/28 03:39:51;;;;;;;10.83;10.43;;;6.60;37.30;;;;;;5091581;28;20416;-61
2022/12/28 03:46:01;;;;;;;9.20;8.83;;;6.70;37.10;;;;;;5110294;28;20470;-60
2022/12/28 03:48:27;;;;;;;10.13;9.73;;;6.70;37.20;;;;;;5091774;28;20457;-60
2022/12/28 03:50:53;;;;;;;10.10;9.63;;;6.70;36.70;;;;;;5091537;28;20422;-61
2022/12/28 03:53:27;;;;;;;9.57;9.27;;;6.80;36.90;;;;;;5090445;28;20693;-61
2022/12/28 03:56:14;;;;;;;10.10;9.50;;;6.80;36.60;;;;;;5092005;28;20412;-60
2022/12/28 03:58:40;;;;;;;10.10;9.70;;;6.90;36.80;;;;;;5091487;28;20430;-60
2022/12/28 04:01:06;;;;;;;8.97;8.57;;;6.90;36.30;;;;;;5091089;28;20411;-61
2022/12/28 04:03:32;;;;;;;9.53;9.23;;;6.90;36.30;;;;;;5091129;28;20422;-61
2022/12/28 04:05:58;;;;;;;10.40;9.90;;;6.90;36.20;;;;;;5090762;28;20542;-60
2022/12/28 04:08:24;;;;;;;9.20;8.80;;;6.90;36.20;;;;;;5090519;28;20504;-60
2022/12/28 04:10:50;;;;;;;9.63;9.23;;;6.90;36.20;;;;;;5091730;28;20412;-60
2022/12/28 04:13:15;;;;;;;10.10;9.50;;;6.90;36.20;;;;;;5091927;28;20413;-61
2022/12/28 04:15:41;;;;;;;9.60;9.30;;;6.90;36.10;;;;;;5091300;28;20185;-60
2022/12/28 04:18:06;;;;;;;9.90;9.60;;;6.90;36.40;;;;;;5090973;28;20338;-61
2022/12/28 04:20:32;;;;;;;9.20;8.90;;;6.80;37.30;;;;;;5090686;28;20567;-60
2022/12/28 04:22:58;;;;;;;9.43;9.13;;;6.80;36.60;;;;;;5090646;28;20178;-60
2022/12/28 04:25:24;;;;;;;9.80;9.43;;;6.80;36.80;;;;;;5090760;28;20204;-61
2022/12/28 04:27:50;;;;;;;10.37;9.97;;;6.90;36.70;;;;;;5091338;28;20181;-60
2022/12/28 04:30:15;;;;;;;10.20;9.80;;;7.00;36.80;;;;;;5109078;28;20404;-61
2022/12/28 04:32:41;;;;;;;10.00;9.60;;;7.00;36.00;;;;;;5091166;28;20178;-61
2022/12/28 04:35:07;;;;;;;10.03;9.60;;;7.00;35.80;;;;;;5090932;28;20181;-57
2022/12/28 04:37:36;;;;;;;9.73;9.33;;;7.10;36.00;;;;;;5090890;28;20180;-57
2022/12/28 04:40:01;;;;;;;9.23;8.90;;;7.10;35.90;;;;;;5091530;28;20488;-57
2022/12/28 04:42:27;;;;;;;10.33;9.93;;;7.10;35.70;;;;;;5090951;28;20447;-57
2022/12/28 04:44:53;;;;;;;9.30;9.00;;;7.10;35.80;;;;;;5090686;28;20625;-57
2022/12/28 04:47:18;;;;;;;10.10;9.20;;;7.20;35.30;;;;;;5091036;28;20180;-57
2022/12/28 04:49:44;;;;;;;8.70;8.30;;;7.30;35.70;;;;;;5090975;28;20260;-57
2022/12/28 04:52:09;;;;;;;8.93;8.63;;;7.40;35.10;;;;;;5090927;28;20194;-57
2022/12/28 04:54:35;;;;;;;9.63;9.33;;;7.40;35.10;;;;;;5091637;28;20178;-57
2022/12/28 04:57:01;;;;;;;9.07;8.73;;;7.40;34.70;;;;;;5091150;28;20170;-56
2022/12/28 04:59:26;;;;;;;9.23;8.93;;;7.50;34.80;;;;;;5090738;28;20180;-56
2022/12/28 05:01:52;;;;;;;9.00;8.60;;;7.50;34.20;;;;;;5091039;28;20174;-55
2022/12/28 05:04:17;;;;;;;9.73;9.33;;;7.50;34.20;;;;;;5091400;28;20425;-57
2022/12/28 05:06:43;;;;;;;9.13;8.73;;;7.50;34.40;;;;;;5094794;28;20242;-57
2022/12/28 05:09:09;;;;;;;9.13;8.83;;;7.40;34.40;;;;;;5095695;28;20583;-56
2022/12/28 05:11:34;;;;;;;9.10;8.80;;;7.40;34.80;;;;;;5095645;28;20265;-57
2022/12/28 05:14:00;;;;;;;9.23;8.73;;;7.40;35.00;;;;;;5096131;28;20211;-57
2022/12/28 05:16:27;;;;;;;9.10;8.70;;;7.40;34.80;;;;;;5095455;28;20265;-57
2022/12/28 05:18:55;;;;;;;9.57;9.20;;;7.20;35.20;;;;;;5095614;28;20182;-57
2022/12/28 05:21:24;;;;;;;9.30;8.90;;;7.30;35.00;;;;;;5096068;28;20776;-56
2022/12/28 05:23:50;;;;;;;10.10;9.40;;;7.30;35.40;;;;;;5096173;28;20490;-57
2022/12/28 05:26:19;;;;;;;9.47;9.17;;;7.30;35.50;;;;;;5095605;28;20414;-56
2022/12/28 05:28:45;;;;;;;9.70;9.40;;;7.30;35.60;;;;;;5095647;28;20419;-61
2022/12/28 05:31:14;;;;;;;9.77;9.20;;;7.40;35.10;;;;;;5095493;28;20443;-60
2022/12/28 05:33:40;;;;;;;9.30;9.00;;;7.40;34.80;;;;;;5096273;28;20443;-61
2022/12/28 05:36:08;;;;;;;10.00;9.50;;;7.40;35.10;;;;;;5096009;28;20415;-61
2022/12/28 05:38:34;;;;;;;10.17;9.47;;;7.40;35.20;;;;;;5095858;28;20416;-61
2022/12/28 05:41:05;;;;;;;9.20;8.80;;;7.40;35.20;;;;;;5096060;28;20407;-61
2022/12/28 05:43:31;;;;;;;9.50;9.10;;;7.50;35.20;;;;;;5095965;28;20432;-60
2022/12/28 05:46:06;;;;;;;8.50;8.20;;;7.50;35.30;;;;;;5096163;28;20510;-61
2022/12/28 05:48:32;;;;;;;9.30;9.00;;;7.40;35.30;;;;;;5096377;28;20187;-60
2022/12/28 05:51:10;;;;;;;9.63;9.23;;;7.40;35.40;;;;;;5096516;28;20418;-60
2022/12/28 05:53:37;;;;;;;9.00;8.60;;;7.40;35.20;;;;;;5096560;28;20416;-61
2022/12/28 05:56:07;;;;;;;9.17;8.87;;;7.50;35.10;;;;;;5096959;28;20411;-61
2022/12/28 05:58:32;;;;;;;9.73;9.13;;;7.50;35.20;;;;;;5096517;28;20446;-60
2022/12/28 06:01:12;;;;;;;9.53;9.03;;;7.50;35.00;;;;;;5096812;28;20447;-61
2022/12/28 06:03:38;;;;;;;9.50;9.20;;;7.50;34.50;;;;;;5114517;28;20171;-60
2022/12/28 06:06:12;;;;;;;9.23;8.93;;;7.50;35.10;;;;;;5096271;28;20416;-61
2022/12/28 06:08:39;;;;;;;9.60;9.20;;;7.40;35.10;;;;;;5096832;28;20407;-61
2022/12/28 06:11:08;;;;;;;9.63;9.23;;;7.50;35.40;;;;;;5096725;28;20407;-57
2022/12/28 06:13:35;;;;;;;9.23;8.83;;;7.50;35.30;;;;;;5089126;28;20850;-57
2022/12/28 06:16:09;;;;;;;9.20;8.80;;;7.50;35.10;;;;;;5113836;28;20426;-55
2022/12/28 06:18:35;;;;;;;8.70;8.40;;;7.50;35.10;;;;;;5091732;28;21181;-53
2022/12/28 06:21:28;;;;;;;8.90;8.60;;;7.40;35.20;;;;;;5095591;28;20408;-53
2022/12/28 06:23:56;;;;;;;10.07;9.57;;;7.40;35.40;;;;;;5093388;28;20532;-51
2022/12/28 06:26:22;;;;;;;9.10;8.80;;;7.50;35.50;;;;;;5096563;28;20411;-49
2022/12/28 06:28:48;;;;;;;10.00;9.17;;;7.50;35.00;;;;;;5096341;28;20422;-59
2022/12/28 06:31:19;;;;;;;9.53;9.13;;;7.60;35.00;;;;;;5114928;28;20947;-59
2022/12/28 06:33:46;;;;;;;9.50;9.10;;;7.70;34.50;;;;;;5096636;28;20418;-60
2022/12/28 06:36:20;;;;;;;9.10;8.70;;;7.60;34.40;;;;;;5098507;28;20438;-59
2022/12/28 06:38:47;;;;;;;10.20;9.80;;;7.70;34.50;;;;;;5096542;28;20452;-58
2022/12/28 06:41:15;;;;;;;9.70;9.30;;;7.70;34.40;;;;;;5096588;28;20420;-59
2022/12/28 06:43:42;;;;;;;10.13;9.40;;;7.60;34.50;;;;;;5096289;28;20466;-58
2022/12/28 06:46:08;;;;;;;9.43;9.03;;;7.60;34.80;;;;;;5096501;28;20403;-59
2022/12/28 06:48:36;;;;;;;9.80;9.40;;;7.60;34.70;;;;;;5096487;28;20498;-59
2022/12/28 06:51:07;;;;;;;9.00;8.70;;;7.60;34.80;;;;;;5096139;28;20782;-60
2022/12/28 06:53:36;;;;;;;9.00;8.70;;;7.60;34.80;;;;;;5094336;28;20462;-60
2022/12/28 06:56:05;;;;;;;9.23;8.87;;;7.70;34.60;;;;;;5090191;28;20973;-60
2022/12/28 06:58:31;;;;;;;9.07;8.70;;;7.70;34.50;;;;;;5091638;28;20420;-56
2022/12/28 07:01:14;;;;;;;9.60;9.20;;;7.80;33.90;;;;;;5111667;28;20552;-54
2022/12/28 07:03:41;;;;;;;10.73;10.13;;;7.80;34.00;;;;;;5094117;28;20895;-56
2022/12/28 07:06:07;;;;;;;9.20;8.83;;;7.80;34.30;;;;;;5092632;28;20419;-58
2022/12/28 07:08:33;;;;;;;9.77;9.37;;;7.60;34.40;;;;;;5113633;28;20420;-56
2022/12/28 07:11:13;;;;;;;10.10;9.60;;;7.60;35.00;;;;;;5093329;28;20927;-55
2022/12/28 07:13:39;;;;;;;9.50;9.13;;;7.50;34.90;;;;;;5093626;28;20180;-56
2022/12/28 07:16:17;;;;;;;9.63;9.27;;;7.60;34.90;;;;;;5093306;28;20528;-55
2022/12/28 07:18:43;;;;;;;10.10;9.70;;;7.50;35.10;;;;;;5093455;28;20414;-56
2022/12/28 07:21:20;;;;;;;9.43;9.03;;;7.50;35.70;;;;;;5095391;28;21028;-55
2022/12/28 07:23:46;;;;;;;9.37;9.00;;;7.50;35.40;;;;;;5111991;28;20410;-54
2022/12/28 07:26:19;;;;;;;8.80;8.50;;;7.50;35.20;;;;;;5095314;28;20423;-54
2022/12/28 07:28:46;;;;;;;9.83;9.20;;;7.50;35.00;;;;;;5094436;28;20430;-56
2022/12/28 07:31:15;;;;;;;9.57;9.10;;;7.60;35.10;;;;;;5094457;28;20780;-61
2022/12/28 07:33:42;;;;;;;10.27;9.80;;;7.50;35.10;;;;;;5089086;28;20428;-60
2022/12/28 07:36:11;;;;;;;9.43;9.13;;;7.50;35.50;;;;;;5082611;28;20427;-56
2022/12/28 07:38:37;;;;;;;10.87;10.37;;;7.50;35.40;;;;;;5085783;28;20415;-56
2022/12/28 07:41:04;;;;;;;10.67;10.27;;;7.50;35.40;;;;;;5094561;28;20419;-54
2022/12/28 07:43:30;;;;;;;11.07;10.57;;;7.40;35.50;;;;;;5103668;27;20431;-54
2022/12/28 07:46:04;;;;;;;10.10;9.70;;;7.50;35.60;;;;;;5115152;27;20515;-56
2022/12/28 07:48:31;;;;;;;9.10;8.77;;;7.60;35.50;;;;;;5115374;27;20568;-61
2022/12/28 07:51:03;;;;;;;8.93;8.63;;;7.60;34.90;;;;;;5107570;28;20835;-61
2022/12/28 07:53:29;;;;;;;10.30;9.80;;;7.60;35.40;;;;;;5094376;28;20420;-60
2022/12/28 07:55:56;;;;;;;9.30;9.00;;;7.60;35.10;;;;;;5094877;28;20899;-60
2022/12/28 07:58:22;;;;;;;11.00;10.40;;;7.70;35.10;;;;;;5094317;28;20174;-60
2022/12/28 08:00:48;;;;;;;10.70;10.30;;;7.80;35.20;;;;;;5094550;28;20427;-54
2022/12/28 08:03:14;;;;;;;10.80;10.20;;;7.80;35.00;;;;;;5094462;28;20420;-57
2022/12/28 08:05:39;;;;;;;9.73;9.17;;;7.80;34.60;;;;;;5094424;28;20697;-56
2022/12/28 08:08:05;;;;;;;10.00;9.60;;;7.90;34.30;;;;;;5093961;28;20295;-59
2022/12/28 08:10:31;;;;;;;10.80;10.23;;;8.10;34.60;;;;;;5094333;28;20186;-60
2022/12/28 08:12:59;;;;;;;9.37;8.90;;;8.20;33.60;;;;;;5094290;28;20251;-60
2022/12/28 08:15:25;;;;;;;11.40;10.90;;;8.30;33.30;;;;;;5093981;28;20408;-59
2022/12/28 08:17:52;;;;;;;10.70;10.10;;;8.40;32.90;;;;;;5094620;28;20412;-60
2022/12/28 08:20:17;;;;;;;10.00;9.60;;;8.50;33.00;;;;;;5094277;28;20174;-60
2022/12/28 08:22:43;;;;;;;10.13;9.73;;;8.40;32.30;;;;;;5093712;28;20822;-60
2022/12/28 08:25:09;;;;;;;9.40;9.00;;;8.40;32.50;;;;;;5094027;28;20208;-60
2022/12/28 08:27:34;;;;;;;10.80;10.20;;;8.40;32.60;;;;;;5094185;28;20181;-61
2022/12/28 08:30:00;;;;;;;10.37;10.00;;;8.30;32.80;;;;;;5093875;28;20219;-61
2022/12/28 08:32:26;;;;;;;10.63;10.23;;;8.40;32.60;;;;;;5089145;28;20639;-61
2022/12/28 08:34:51;;;;;;;9.47;9.17;;;8.30;32.80;;;;;;5089697;28;20265;-58
2022/12/28 08:37:17;;;;;;;11.73;11.20;;;8.30;32.80;;;;;;5082953;28;20184;-58
2022/12/28 08:39:42;;;;;;;9.57;9.17;;;8.30;33.00;;;;;;5087179;28;20211;-56
2022/12/28 08:42:08;;;;;;;9.87;9.37;;;8.20;33.20;;;;;;5092024;28;20174;-61
2022/12/28 08:44:34;;;;;;;10.07;9.67;;;8.10;33.60;;;;;;5084615;28;20202;-56
2022/12/28 08:46:59;;;;;;;10.00;9.63;;;8.00;33.50;;;;;;5085252;28;20181;-56
2022/12/28 08:49:25;;;;;;;10.00;9.60;;;8.00;33.70;;;;;;5092258;28;20174;-56
2022/12/28 08:51:51;;;;;;;9.87;9.37;;;7.90;33.90;;;;;;5089408;28;20529;-56
2022/12/28 08:54:17;;;;;;;9.90;9.50;;;7.90;34.20;;;;;;5092943;28;20174;-55
2022/12/28 08:56:44;;;;;;;9.13;8.83;;;8.00;33.70;;;;;;5092081;28;20423;-56
2022/12/28 08:59:15;;;;;;;8.70;8.30;;;8.00;33.30;;;;;;5092654;28;20677;-56
2022/12/28 09:01:41;;;;;;;9.37;8.97;;;8.10;33.50;;;;;;5092598;28;20426;-56
2022/12/28 09:04:15;;;;;;;8.50;8.30;;;8.20;33.10;;;;;;5093748;28;20491;-55
2022/12/28 09:06:41;;;;;;;9.00;8.40;;;8.10;32.60;;;;;;5080718;28;20938;-57
2022/12/28 09:09:11;;;;;;;9.57;9.17;;;8.20;33.20;;;;;;5090973;28;20424;-55
2022/12/28 09:11:37;;;;;;;9.47;8.97;;;8.20;33.00;;;;;;5076674;28;20421;-56
2022/12/28 09:14:05;;;;;;;9.70;9.20;;;8.20;33.10;;;;;;5091473;28;20543;-57
2022/12/28 09:16:32;;;;;;;10.00;9.60;;;8.30;33.10;;;;;;5087653;28;20455;-56
2022/12/28 09:18:59;;;;;;;9.00;8.70;;;8.30;32.90;;;;;;5093880;28;20427;-57
2022/12/28 09:21:29;;;;;;;9.63;9.33;;;8.30;32.50;;;;;;5088307;28;20432;-56
2022/12/28 09:23:55;;;;;;;10.20;9.80;;;8.30;32.50;;;;;;5091645;28;20451;-58
2022/12/28 09:26:25;;;;;;;10.03;9.63;;;8.50;32.50;;;;;;5093831;28;20759;-56
2022/12/28 09:28:53;;;;;;;9.10;8.70;;;8.60;32.30;;;;;;5093348;28;20775;-57
2022/12/28 09:31:20;;;;;;;9.20;8.90;;;8.60;31.70;;;;;;5105094;28;20446;-56
2022/12/28 09:34:01;;;;;;;9.77;9.17;;;8.70;31.80;;;;;;5083044;28;20446;-57
2022/12/28 09:36:35;;;;;;;9.07;8.60;;;8.70;31.40;;;;;;5088241;28;20754;-55
2022/12/28 09:39:15;;;;;;;9.10;8.67;;;8.80;31.50;;;;;;5089453;28;20983;-56
2022/12/28 09:41:44;;;;;;;8.87;8.50;;;8.70;31.40;;;;;;5086647;28;20482;-56
2022/12/28 09:44:15;;;;;;;9.00;8.67;;;8.70;31.40;;;;;;5090056;28;20460;-53
2022/12/28 09:46:50;;;;;;;9.07;8.67;;;8.70;31.40;;;;;;5090190;28;20408;-54
2022/12/28 09:49:17;;;;;;;10.13;9.53;;;8.70;31.40;;;;;;5090401;28;20619;-60
2022/12/28 09:52:12;;;;;;;8.97;8.57;;;8.80;31.40;;;;;;5087717;28;20454;-60
2022/12/28 09:54:39;;;;;;;9.30;8.77;;;8.80;31.40;;;;;;4989050;28;20433;-59
2022/12/28 09:57:12;;;;;;;8.47;8.17;;;8.90;31.80;;;;;;5090020;28;20416;-60
2022/12/28 09:59:38;;;;;;;8.40;8.07;;;8.90;31.50;;;;;;5092778;28;20777;-61
2022/12/28 10:02:15;;;;;;;9.07;8.43;;;9.00;31.60;;;;;;5090209;28;20408;-57
2022/12/28 10:04:41;;;;;;;8.87;8.47;;;9.00;32.30;;;;;;5094600;28;20469;-58
2022/12/28 10:07:10;;;;;;;8.10;7.80;;;9.10;31.10;;;;;;5086434;28;20412;-58
2022/12/28 10:09:35;;;;;;;9.20;8.70;;;9.10;30.90;;;;;;5093827;28;20174;-58
2022/12/28 10:12:12;;;;;;;9.23;8.93;;;9.10;31.30;;;;;;5094923;28;20476;-58
2022/12/28 10:14:38;;;;;;;8.83;8.43;;;9.10;31.20;;;;;;5088242;28;20177;-58
2022/12/28 10:17:06;;;;;;;8.50;8.10;;;9.10;31.70;;;;;;5093809;28;20423;-58
2022/12/28 10:19:31;;;;;;;8.50;8.20;;;9.20;31.50;;;;;;5096849;28;20227;-58
2022/12/28 10:22:03;;;;;;;9.53;9.03;;;9.20;31.20;;;;;;5096774;28;20796;-58
2022/12/28 10:24:29;;;;;;;8.50;8.20;;;9.30;31.00;;;;;;5084193;28;20191;-57
2022/12/28 10:26:57;;;;;;;9.40;9.03;;;9.30;30.50;;;;;;5095536;28;20419;-57
2022/12/28 10:29:24;;;;;;;9.73;9.33;;;9.30;30.70;;;;;;5084550;28;20784;-55
2022/12/28 10:32:00;;;;;;;8.77;8.33;;;9.40;30.60;;;;;;5090201;28;20432;-57
2022/12/28 10:34:28;;;;;;;9.33;8.93;;;9.50;30.50;;;;;;5086722;28;20463;-57
2022/12/28 10:36:54;;;;;;;9.30;9.00;;;9.60;30.50;;;;;;5094545;28;20424;-57
2022/12/28 10:39:28;;;;;;;9.60;9.07;;;9.60;30.00;;;;;;5104663;28;20449;-56
2022/12/28 10:41:57;;;;;;;8.60;8.30;;;9.70;30.00;;;;;;5092650;28;20453;-55
2022/12/28 10:44:31;;;;;;;8.13;7.83;;;9.70;29.50;;;;;;5092798;28;20507;-56
2022/12/28 10:47:24;;;;;;;8.57;8.27;;;9.80;29.70;;;;;;5085061;28;20777;-56
2022/12/28 10:49:51;;;;;;;8.93;8.63;;;9.90;29.60;;;;;;5086486;28;20424;-57
2022/12/28 10:52:19;;;;;;;8.10;7.83;;;10.00;28.40;;;;;;5090298;28;20453;-56
2022/12/28 10:54:45;;;;;;;7.70;7.40;;;10.00;28.60;;;;;;5092121;28;20460;-56
2022/12/28 10:57:28;;;;;;;7.63;7.43;;;10.00;28.30;;;;;;5091710;28;20411;-56
2022/12/28 11:00:15;;;;;;;8.03;7.70;;;10.00;28.10;;;;;;5090483;28;20494;-57
2022/12/28 11:02:40;;;;;;;8.57;8.17;;;10.10;28.20;;;;;;5093208;28;20934;-57
2022/12/28 11:05:06;;;;;;;8.20;8.00;;;10.20;28.10;;;;;;5090967;28;20491;-57
2022/12/28 11:07:36;;;;;;;8.87;8.40;;;10.20;27.60;;;;;;5084676;28;20210;-56
2022/12/28 11:10:21;;;;;;;8.73;8.43;;;10.30;27.90;;;;;;5082583;28;20204;-57
2022/12/28 11:12:47;;;;;;;8.10;7.90;;;10.40;27.60;;;;;;5080889;28;20444;-57
2022/12/28 11:15:16;;;;;;;8.00;7.80;;;10.30;27.50;;;;;;5094002;28;20835;-57
2022/12/28 11:17:42;;;;;;;8.07;7.83;;;10.40;27.50;;;;;;5093716;28;20473;-57
2022/12/28 11:20:32;;;;;;;7.50;7.30;;;10.30;27.70;;;;;;5091594;28;20462;-57
2022/12/28 11:22:58;;;;;;;7.47;7.27;;;10.40;27.50;;;;;;5092568;28;20416;-57
2022/12/28 11:25:33;;;;;;;7.70;7.40;;;10.40;27.10;;;;;;5093215;28;20535;-57
2022/12/28 11:28:00;;;;;;;8.00;7.70;;;10.50;27.10;;;;;;5095469;28;20468;-57
2022/12/28 11:30:27;;;;;;;8.43;8.13;;;10.50;26.90;;;;;;5090708;28;20430;-58
2022/12/28 11:32:58;;;;;;;8.30;8.00;;;10.50;27.10;;;;;;5089998;28;20431;-57
2022/12/28 11:35:29;;;;;;;8.53;8.23;;;10.40;26.90;;;;;;5088455;28;20464;-58
2022/12/28 11:37:57;;;;;;;7.90;7.60;;;10.40;27.50;;;;;;5090626;28;20420;-58
2022/12/28 11:40:51;;;;;;;8.17;7.77;;;10.40;27.10;;;;;;5090539;28;20422;-58
2022/12/28 11:43:29;;;;;;;7.77;7.37;;;10.40;26.80;;;;;;5088693;28;20826;-58
2022/12/28 11:45:57;;;;;;;7.70;7.50;;;10.50;27.20;;;;;;5087207;28;20529;-58
2022/12/28 11:48:41;;;;;;;7.80;7.60;;;10.50;27.00;;;;;;5089918;28;20420;-57
2022/12/28 11:51:26;;;;;;;8.20;8.00;;;10.30;26.90;;;;;;5108521;28;20412;-57
2022/12/28 11:54:23;;;;;;;8.57;8.17;;;10.30;27.10;;;;;;5095193;28;20450;-57
2022/12/28 11:56:51;;;;;;;7.80;7.60;;;10.30;27.40;;;;;;5078335;28;20424;-58
2022/12/28 11:59:31;;;;;;;8.13;7.90;;;10.30;27.20;;;;;;5094621;28;20404;-55
2022/12/28 12:01:59;;;;;;;7.97;7.73;;;10.40;27.10;;;;;;5087699;28;20995;-56
2022/12/28 12:04:40;;;;;;;8.07;7.67;;;10.30;27.00;;;;;;5094124;28;20539;-56
2022/12/28 12:07:13;;;;;;;7.80;7.60;;;10.30;27.30;;;;;;5093785;28;20486;-56
2022/12/28 12:09:42;;;;;;;7.90;7.60;;;10.30;27.30;;;;;;5094027;28;20407;-57
2022/12/28 12:12:14;;;;;;;8.23;7.93;;;10.30;27.10;;;;;;5094561;28;20942;-57
2022/12/28 12:14:55;;;;;;;7.33;7.13;;;10.30;27.50;;;;;;5094154;28;20838;-57
2022/12/28 12:17:20;;;;;;;7.90;7.70;;;10.40;27.30;;;;;;5094321;28;20495;-57
2022/12/28 12:19:49;;;;;;;7.73;7.53;;;10.30;27.50;;;;;;5112694;28;20498;-57
2022/12/28 12:22:22;;;;;;;8.27;7.87;;;10.30;27.20;;;;;;5094337;28;20173;-56
2022/12/28 12:25:17;;;;;;;7.97;7.70;;;10.40;27.20;;;;;;5094392;28;20459;-55
2022/12/28 12:28:18;;;;;;;8.17;7.70;;;10.30;27.30;;;;;;5089454;28;20438;-55
2022/12/28 12:30:45;;;;;;;9.23;8.93;;;10.30;27.40;;;;;;5072531;28;20420;-64
2022/12/28 12:33:16;;;;;;;8.43;8.13;;;10.50;27.50;;;;;;5094157;28;20426;-58
2022/12/28 12:36:10;;;;;;;8.37;8.07;;;10.60;27.30;;;;;;5094357;28;20408;-58
2022/12/28 12:39:23;;;;;;;8.77;8.47;;;10.60;27.10;;;;;;5094110;28;20422;-58
2022/12/28 12:42:07;;;;;;;8.23;7.83;;;10.70;27.20;;;;;;4989420;28;20431;-58
2022/12/28 12:44:47;;;;;;;8.57;8.30;;;10.70;26.90;;;;;;5080545;28;20468;-59
2022/12/28 12:47:41;;;;;;;7.83;7.53;;;10.80;26.90;;;;;;5073855;28;20507;-59
2022/12/28 12:50:09;;;;;;;7.97;7.77;;;10.80;26.90;;;;;;5086959;28;20420;-58
2022/12/28 12:53:02;;;;;;;8.27;7.87;;;10.80;27.00;;;;;;5093219;28;20438;-58
2022/12/28 12:56:04;;;;;;;7.77;7.57;;;10.80;27.00;;;;;;5074327;28;20462;-59
2022/12/28 12:58:42;;;;;;;8.00;7.77;;;10.70;26.90;;;;;;5092397;28;20439;-59
2022/12/28 13:01:17;;;;;;;8.57;8.17;;;10.70;27.00;;;;;;5093628;28;20412;-59
2022/12/28 13:03:46;;;;;;;8.10;7.60;;;10.70;27.10;;;;;;5092641;28;20415;-59
2022/12/28 13:06:19;;;;;;;7.90;7.60;;;10.70;26.90;;;;;;5090895;28;20408;-58
2022/12/28 13:08:48;;;;;;;7.50;7.30;;;10.80;27.00;;;;;;5084544;28;20427;-59
2022/12/28 13:11:15;;;;;;;7.43;7.23;;;10.80;27.00;;;;;;5091458;28;20432;-59
2022/12/28 13:13:44;;;;;;;7.50;7.27;;;10.70;26.90;;;;;;5093761;28;20419;-59
2022/12/28 13:16:31;;;;;;;7.50;7.30;;;10.70;26.80;;;;;;5093941;28;20403;-59
2022/12/28 13:19:02;;;;;;;7.93;7.63;;;10.80;27.20;;;;;;5093758;28;20916;-59
2022/12/28 13:21:48;;;;;;;8.33;8.00;;;10.80;27.10;;;;;;5093429;28;20764;-59
2022/12/28 13:24:22;;;;;;;8.63;8.13;;;10.90;27.30;;;;;;5093110;28;20460;-59
2022/12/28 13:26:48;;;;;;;7.93;7.63;;;10.80;26.80;;;;;;5092664;28;20960;-57
2022/12/28 13:29:21;;;;;;;8.57;8.27;;;10.80;27.10;;;;;;5097854;28;20412;-59
2022/12/28 13:31:51;;;;;;;7.30;7.10;;;10.80;27.20;;;;;;5096646;28;20404;-58
2022/12/28 13:34:25;;;;;;;7.17;6.90;;;10.80;27.20;;;;;;5097046;28;20429;-54
2022/12/28 13:36:57;;;;;;;7.50;7.10;;;10.90;27.20;;;;;;5115489;28;20411;-55